sensor_id;sensor_type;location;lat;lon;timestamp;pressure;altitude;pressure_sealevel;temperature;humidity
43125;BME280;49182;50.788;7.318;2022-07-05T00:02:19;101254.84;;;13.67;74.62
43125;BME280;49182;50.788;7.318;2022-07-05T00:04:47;101241.84;;;13.55;75.10
43125;BME280;49182;50.788;7.318;2022-07-05T00:07:14;101246.44;;;13.53;74.63
43125;BME280;49182;50.788;7.318;2022-07-05T00:09:41;101255.81;;;13.57;74.54
43125;BME280;49182;50.788;7.318;2022-07-05T00:12:08;101255.09;;;13.55;74.13
43125;BME280;49182;50.788;7.318;2022-07-05T00:14:35;101246.97;;;13.47;74.06
43125;BME280;49182;50.788;7.318;2022-07-05T00:17:02;101260.78;;;13.41;74.21
43125;BME280;49182;50.788;7.318;2022-07-05T00:19:29;101259.41;;;13.36;73.83
43125;BME280;49182;50.788;7.318;2022-07-05T00:21:57;101263.31;;;13.32;73.97
43125;BME280;49182;50.788;7.318;2022-07-05T00:24:24;101265.25;;;13.30;74.03
43125;BME280;49182;50.788;7.318;2022-07-05T00:26:51;101264.28;;;13.31;73.88
43125;BME280;49182;50.788;7.318;2022-07-05T00:29:18;101264.41;;;13.30;74.45
43125;BME280;49182;50.788;7.318;2022-07-05T00:31:44;101262.84;;;13.27;74.17
43125;BME280;49182;50.788;7.318;2022-07-05T00:34:11;101270.13;;;13.25;74.43
43125;BME280;49182;50.788;7.318;2022-07-05T00:36:38;101271.22;;;13.23;74.58
43125;BME280;49182;50.788;7.318;2022-07-05T00:39:07;101270.50;;;13.21;74.38
43125;BME280;49182;50.788;7.318;2022-07-05T00:41:34;101268.00;;;13.19;74.54
43125;BME280;49182;50.788;7.318;2022-07-05T00:44:02;101269.09;;;13.17;75.14
43125;BME280;49182;50.788;7.318;2022-07-05T00:46:30;101238.44;;;12.93;74.78
43125;BME280;49182;50.788;7.318;2022-07-05T00:48:57;101261.78;;;13.09;75.24
43125;BME280;49182;50.788;7.318;2022-07-05T00:51:25;101263.88;;;13.06;75.38
43125;BME280;49182;50.788;7.318;2022-07-05T00:53:54;101268.03;;;12.98;75.41
43125;BME280;49182;50.788;7.318;2022-07-05T00:56:22;101267.16;;;12.88;75.46
43125;BME280;49182;50.788;7.318;2022-07-05T00:58:50;101268.56;;;12.92;76.21
43125;BME280;49182;50.788;7.318;2022-07-05T01:01:17;101270.66;;;12.89;76.05
43125;BME280;49182;50.788;7.318;2022-07-05T01:03:44;101274.53;;;12.85;76.33
43125;BME280;49182;50.788;7.318;2022-07-05T01:06:13;101273.13;;;12.81;76.30
43125;BME280;49182;50.788;7.318;2022-07-05T01:08:41;101274.50;;;12.75;76.31
43125;BME280;49182;50.788;7.318;2022-07-05T01:11:09;101272.25;;;12.71;76.26
43125;BME280;49182;50.788;7.318;2022-07-05T01:13:38;101281.41;;;12.67;76.06
43125;BME280;49182;50.788;7.318;2022-07-05T01:16:05;101283.09;;;12.68;77.08
43125;BME280;49182;50.788;7.318;2022-07-05T01:18:32;101282.38;;;12.66;77.47
43125;BME280;49182;50.788;7.318;2022-07-05T01:20:59;101280.72;;;12.65;77.87
43125;BME280;49182;50.788;7.318;2022-07-05T01:23:28;101280.13;;;12.61;78.42
43125;BME280;49182;50.788;7.318;2022-07-05T01:25:56;101245.25;;;12.35;78.32
43125;BME280;49182;50.788;7.318;2022-07-05T01:28:24;101295.72;;;12.54;78.31
43125;BME280;49182;50.788;7.318;2022-07-05T01:30:51;101286.22;;;12.52;78.17
43125;BME280;49182;50.788;7.318;2022-07-05T01:33:18;101279.16;;;12.41;77.83
43125;BME280;49182;50.788;7.318;2022-07-05T01:35:44;101253.03;;;12.27;77.89
43125;BME280;49182;50.788;7.318;2022-07-05T01:38:12;101287.84;;;12.43;77.97
43125;BME280;49182;50.788;7.318;2022-07-05T01:40:40;101287.38;;;12.38;78.12
43125;BME280;49182;50.788;7.318;2022-07-05T01:43:06;101267.25;;;12.26;78.35
43125;BME280;49182;50.788;7.318;2022-07-05T01:45:33;101281.78;;;12.32;77.96
43125;BME280;49182;50.788;7.318;2022-07-05T01:48:00;101289.25;;;12.27;78.03
43125;BME280;49182;50.788;7.318;2022-07-05T01:50:28;101278.84;;;12.14;78.13
43125;BME280;49182;50.788;7.318;2022-07-05T01:52:56;101294.47;;;12.17;78.03
43125;BME280;49182;50.788;7.318;2022-07-05T01:55:27;101260.75;;;11.98;78.52
43125;BME280;49182;50.788;7.318;2022-07-05T01:57:55;101286.59;;;12.06;78.54
43125;BME280;49182;50.788;7.318;2022-07-05T02:00:22;101287.81;;;12.02;78.43
43125;BME280;49182;50.788;7.318;2022-07-05T02:02:48;101265.63;;;11.82;78.77
43125;BME280;49182;50.788;7.318;2022-07-05T02:05:15;101135.72;;;11.01;79.06
43125;BME280;49182;50.788;7.318;2022-07-05T02:07:46;101276.59;;;11.78;79.16
43125;BME280;49182;50.788;7.318;2022-07-05T02:10:14;101298.97;;;11.85;79.42
43125;BME280;49182;50.788;7.318;2022-07-05T02:12:41;101292.09;;;11.82;79.19
43125;BME280;49182;50.788;7.318;2022-07-05T02:15:10;101294.88;;;11.81;79.47
43125;BME280;49182;50.788;7.318;2022-07-05T02:17:37;101304.50;;;11.82;79.72
43125;BME280;49182;50.788;7.318;2022-07-05T02:20:05;101301.25;;;11.78;79.74
43125;BME280;49182;50.788;7.318;2022-07-05T02:22:32;101297.88;;;11.76;79.98
43125;BME280;49182;50.788;7.318;2022-07-05T02:24:59;101300.66;;;11.74;80.04
43125;BME280;49182;50.788;7.318;2022-07-05T02:27:26;101303.53;;;11.71;79.91
43125;BME280;49182;50.788;7.318;2022-07-05T02:29:53;101295.25;;;11.65;79.80
43125;BME280;49182;50.788;7.318;2022-07-05T02:32:29;101295.72;;;11.70;79.87
43125;BME280;49182;50.788;7.318;2022-07-05T02:34:56;101297.50;;;11.69;79.68
43125;BME280;49182;50.788;7.318;2022-07-05T02:37:23;101296.44;;;11.61;79.46
43125;BME280;49182;50.788;7.318;2022-07-05T02:39:50;101304.72;;;11.67;79.92
43125;BME280;49182;50.788;7.318;2022-07-05T02:42:16;101307.75;;;11.63;79.88
43125;BME280;49182;50.788;7.318;2022-07-05T02:44:44;101309.56;;;11.62;80.32
43125;BME280;49182;50.788;7.318;2022-07-05T02:47:12;101307.28;;;11.58;80.10
43125;BME280;49182;50.788;7.318;2022-07-05T02:49:41;101307.53;;;11.55;80.26
43125;BME280;49182;50.788;7.318;2022-07-05T02:52:08;101296.28;;;11.42;80.20
43125;BME280;49182;50.788;7.318;2022-07-05T02:54:35;101293.13;;;11.36;80.59
43125;BME280;49182;50.788;7.318;2022-07-05T02:57:04;101306.47;;;11.46;80.28
43125;BME280;49182;50.788;7.318;2022-07-05T02:59:30;101251.94;;;11.12;80.30
43125;BME280;49182;50.788;7.318;2022-07-05T03:01:57;101313.09;;;11.41;80.15
43125;BME280;49182;50.788;7.318;2022-07-05T03:04:24;101315.00;;;11.39;80.45
43125;BME280;49182;50.788;7.318;2022-07-05T03:06:56;101310.69;;;11.38;80.16
43125;BME280;49182;50.788;7.318;2022-07-05T03:09:26;101316.09;;;11.36;80.39
43125;BME280;49182;50.788;7.318;2022-07-05T03:11:54;101317.19;;;11.33;80.42
43125;BME280;49182;50.788;7.318;2022-07-05T03:14:21;101317.41;;;11.30;80.47
43125;BME280;49182;50.788;7.318;2022-07-05T03:16:50;101308.91;;;11.27;80.56
43125;BME280;49182;50.788;7.318;2022-07-05T03:19:18;101291.59;;;11.12;80.29
43125;BME280;49182;50.788;7.318;2022-07-05T03:21:45;101312.50;;;11.26;80.83
43125;BME280;49182;50.788;7.318;2022-07-05T03:24:14;101284.88;;;11.08;81.02
43125;BME280;49182;50.788;7.318;2022-07-05T03:26:41;101278.41;;;11.01;81.14
43125;BME280;49182;50.788;7.318;2022-07-05T03:29:08;101320.91;;;11.20;81.13
43125;BME280;49182;50.788;7.318;2022-07-05T03:31:35;101308.91;;;11.16;81.40
43125;BME280;49182;50.788;7.318;2022-07-05T03:34:04;101316.00;;;11.15;81.92
43125;BME280;49182;50.788;7.318;2022-07-05T03:36:32;101312.03;;;11.10;81.95
43125;BME280;49182;50.788;7.318;2022-07-05T03:39:01;101308.66;;;11.08;82.11
43125;BME280;49182;50.788;7.318;2022-07-05T03:41:30;101319.97;;;11.10;82.38
43125;BME280;49182;50.788;7.318;2022-07-05T03:43:57;101322.59;;;11.10;82.46
43125;BME280;49182;50.788;7.318;2022-07-05T03:46:23;101319.13;;;11.09;82.12
43125;BME280;49182;50.788;7.318;2022-07-05T03:48:50;101320.91;;;11.09;82.19
43125;BME280;49182;50.788;7.318;2022-07-05T03:51:17;101315.75;;;11.07;82.11
43125;BME280;49182;50.788;7.318;2022-07-05T03:53:46;101296.88;;;11.01;82.50
43125;BME280;49182;50.788;7.318;2022-07-05T03:56:12;101314.53;;;11.11;82.75
43125;BME280;49182;50.788;7.318;2022-07-05T03:58:41;101315.03;;;11.16;83.04
43125;BME280;49182;50.788;7.318;2022-07-05T04:01:07;101325.63;;;11.16;82.60
43125;BME280;49182;50.788;7.318;2022-07-05T04:03:34;101322.25;;;11.14;82.36
43125;BME280;49182;50.788;7.318;2022-07-05T04:06:09;101326.69;;;11.14;82.38
43125;BME280;49182;50.788;7.318;2022-07-05T04:08:36;101329.91;;;11.17;82.37
43125;BME280;49182;50.788;7.318;2022-07-05T04:11:04;101330.28;;;11.24;82.82
43125;BME280;49182;50.788;7.318;2022-07-05T04:13:32;101341.34;;;11.29;82.64
43125;BME280;49182;50.788;7.318;2022-07-05T04:16:01;101331.72;;;11.28;82.63
43125;BME280;49182;50.788;7.318;2022-07-05T04:18:28;101334.84;;;11.33;82.43
43125;BME280;49182;50.788;7.318;2022-07-05T04:20:57;101330.28;;;11.35;82.70
43125;BME280;49182;50.788;7.318;2022-07-05T04:23:24;101172.28;;;10.40;82.58
43125;BME280;49182;50.788;7.318;2022-07-05T04:25:51;101334.00;;;11.44;82.64
43125;BME280;49182;50.788;7.318;2022-07-05T04:28:24;101334.69;;;11.57;82.86
43125;BME280;49182;50.788;7.318;2022-07-05T04:30:53;101337.47;;;11.78;82.84
43125;BME280;49182;50.788;7.318;2022-07-05T04:33:24;101328.72;;;11.98;82.14
43125;BME280;49182;50.788;7.318;2022-07-05T04:35:54;101341.53;;;12.45;80.78
43125;BME280;49182;50.788;7.318;2022-07-05T04:38:21;101347.56;;;12.78;79.57
43125;BME280;49182;50.788;7.318;2022-07-05T04:40:48;101346.50;;;13.11;78.45
43125;BME280;49182;50.788;7.318;2022-07-05T04:43:15;101346.66;;;13.40;77.92
43125;BME280;49182;50.788;7.318;2022-07-05T04:45:43;101355.00;;;13.75;76.67
43125;BME280;49182;50.788;7.318;2022-07-05T04:48:10;101353.78;;;14.08;74.87
43125;BME280;49182;50.788;7.318;2022-07-05T04:50:41;101358.00;;;14.30;74.29
43125;BME280;49182;50.788;7.318;2022-07-05T04:53:09;101363.31;;;14.39;72.92
43125;BME280;49182;50.788;7.318;2022-07-05T04:55:35;101363.91;;;14.43;72.46
43125;BME280;49182;50.788;7.318;2022-07-05T04:58:02;101363.59;;;14.46;72.01
43125;BME280;49182;50.788;7.318;2022-07-05T05:00:28;101362.50;;;14.48;72.30
43125;BME280;49182;50.788;7.318;2022-07-05T05:02:55;101349.47;;;14.36;72.54
43125;BME280;49182;50.788;7.318;2022-07-05T05:05:22;101346.72;;;14.37;72.34
43125;BME280;49182;50.788;7.318;2022-07-05T05:07:50;101354.78;;;14.45;72.38
43125;BME280;49182;50.788;7.318;2022-07-05T05:10:16;101365.44;;;14.55;72.45
43125;BME280;49182;50.788;7.318;2022-07-05T05:12:43;101360.97;;;14.55;72.53
43125;BME280;49182;50.788;7.318;2022-07-05T05:15:10;101359.00;;;14.48;72.79
43125;BME280;49182;50.788;7.318;2022-07-05T05:17:37;101356.34;;;14.48;72.93
43125;BME280;49182;50.788;7.318;2022-07-05T05:20:06;101361.34;;;14.51;73.20
43125;BME280;49182;50.788;7.318;2022-07-05T05:22:33;101359.81;;;14.58;72.51
43125;BME280;49182;50.788;7.318;2022-07-05T05:25:02;101366.53;;;14.62;72.83
43125;BME280;49182;50.788;7.318;2022-07-05T05:27:29;101369.63;;;14.67;72.68
43125;BME280;49182;50.788;7.318;2022-07-05T05:29:55;101369.31;;;14.70;72.55
43125;BME280;49182;50.788;7.318;2022-07-05T05:32:22;101379.53;;;14.75;73.09
43125;BME280;49182;50.788;7.318;2022-07-05T05:34:48;101371.00;;;14.81;72.66
43125;BME280;49182;50.788;7.318;2022-07-05T05:37:15;101371.66;;;14.83;72.42
43125;BME280;49182;50.788;7.318;2022-07-05T05:39:42;101369.56;;;14.86;72.84
43125;BME280;49182;50.788;7.318;2022-07-05T05:42:10;101371.66;;;14.92;72.41
43125;BME280;49182;50.788;7.318;2022-07-05T05:44:36;101374.41;;;15.01;72.07
43125;BME280;49182;50.788;7.318;2022-07-05T05:47:04;101372.41;;;15.12;72.12
43125;BME280;49182;50.788;7.318;2022-07-05T05:49:30;101377.91;;;15.11;71.92
43125;BME280;49182;50.788;7.318;2022-07-05T05:51:57;101392.84;;;15.21;71.70
43125;BME280;49182;50.788;7.318;2022-07-05T05:54:23;101400.25;;;15.27;71.99
43125;BME280;49182;50.788;7.318;2022-07-05T05:56:50;101383.84;;;15.32;71.91
43125;BME280;49182;50.788;7.318;2022-07-05T05:59:19;101383.84;;;15.32;71.52
43125;BME280;49182;50.788;7.318;2022-07-05T06:01:45;101396.56;;;15.38;71.74
43125;BME280;49182;50.788;7.318;2022-07-05T06:04:12;101390.50;;;15.46;71.45
43125;BME280;49182;50.788;7.318;2022-07-05T06:06:40;101388.53;;;15.57;71.20
43125;BME280;49182;50.788;7.318;2022-07-05T06:09:06;101391.00;;;15.68;71.05
43125;BME280;49182;50.788;7.318;2022-07-05T06:11:33;101374.88;;;15.70;71.22
43125;BME280;49182;50.788;7.318;2022-07-05T06:14:00;101390.28;;;15.94;70.71
43125;BME280;49182;50.788;7.318;2022-07-05T06:16:27;101397.25;;;16.04;70.72
43125;BME280;49182;50.788;7.318;2022-07-05T06:18:54;101399.38;;;16.18;70.59
43125;BME280;49182;50.788;7.318;2022-07-05T06:21:21;101392.22;;;16.37;70.28
43125;BME280;49182;50.788;7.318;2022-07-05T06:23:47;101401.13;;;16.45;69.54
43125;BME280;49182;50.788;7.318;2022-07-05T06:26:14;101405.53;;;16.54;69.34
43125;BME280;49182;50.788;7.318;2022-07-05T06:28:40;101405.03;;;16.69;69.61
43125;BME280;49182;50.788;7.318;2022-07-05T06:31:07;101412.34;;;16.84;69.36
43125;BME280;49182;50.788;7.318;2022-07-05T06:33:35;101410.25;;;16.96;69.10
43125;BME280;49182;50.788;7.318;2022-07-05T06:36:02;101412.13;;;17.04;68.74
43125;BME280;49182;50.788;7.318;2022-07-05T06:38:29;101419.91;;;17.23;68.88
43125;BME280;49182;50.788;7.318;2022-07-05T06:40:55;101417.34;;;17.39;68.70
43125;BME280;49182;50.788;7.318;2022-07-05T06:43:22;101412.84;;;17.39;67.57
43125;BME280;49182;50.788;7.318;2022-07-05T06:46:00;101401.88;;;17.51;68.03
43125;BME280;49182;50.788;7.318;2022-07-05T06:48:26;101419.00;;;17.66;67.02
43125;BME280;49182;50.788;7.318;2022-07-05T06:50:54;101419.03;;;17.74;66.79
43125;BME280;49182;50.788;7.318;2022-07-05T06:53:21;101418.41;;;17.80;66.76
43125;BME280;49182;50.788;7.318;2022-07-05T06:55:47;101422.41;;;17.84;66.78
43125;BME280;49182;50.788;7.318;2022-07-05T06:58:22;101417.44;;;17.89;66.41
43125;BME280;49182;50.788;7.318;2022-07-05T07:00:49;101423.13;;;18.02;66.26
43125;BME280;49182;50.788;7.318;2022-07-05T07:03:35;101421.84;;;18.14;65.91
43125;BME280;49182;50.788;7.318;2022-07-05T07:06:23;101415.34;;;18.33;64.92
43125;BME280;49182;50.788;7.318;2022-07-05T07:08:50;101411.53;;;18.44;65.09
43125;BME280;49182;50.788;7.318;2022-07-05T07:11:17;101412.91;;;18.56;64.57
43125;BME280;49182;50.788;7.318;2022-07-05T07:13:43;101416.41;;;18.73;63.32
43125;BME280;49182;50.788;7.318;2022-07-05T07:16:10;101411.56;;;18.76;63.24
43125;BME280;49182;50.788;7.318;2022-07-05T07:18:37;101419.78;;;18.75;62.71
43125;BME280;49182;50.788;7.318;2022-07-05T07:21:25;101426.63;;;18.77;62.71
43125;BME280;49182;50.788;7.318;2022-07-05T07:23:51;101428.63;;;18.83;62.86
43125;BME280;49182;50.788;7.318;2022-07-05T07:26:18;101424.94;;;18.92;61.71
43125;BME280;49182;50.788;7.318;2022-07-05T07:28:44;101423.59;;;18.96;61.59
43125;BME280;49182;50.788;7.318;2022-07-05T07:31:11;101415.25;;;18.99;61.33
43125;BME280;49182;50.788;7.318;2022-07-05T07:33:38;101420.06;;;19.12;61.39
43125;BME280;49182;50.788;7.318;2022-07-05T07:36:11;101430.56;;;19.30;60.33
43125;BME280;49182;50.788;7.318;2022-07-05T07:38:42;101421.00;;;19.44;60.15
43125;BME280;49182;50.788;7.318;2022-07-05T07:41:09;101433.38;;;19.53;59.86
43125;BME280;49182;50.788;7.318;2022-07-05T07:43:35;101429.16;;;19.66;59.63
43125;BME280;49182;50.788;7.318;2022-07-05T07:46:02;101423.56;;;19.84;59.11
43125;BME280;49182;50.788;7.318;2022-07-05T07:48:29;101425.84;;;19.95;58.14
43125;BME280;49182;50.788;7.318;2022-07-05T07:50:55;101426.09;;;20.08;58.22
43125;BME280;49182;50.788;7.318;2022-07-05T07:53:23;101424.72;;;20.12;57.79
43125;BME280;49182;50.788;7.318;2022-07-05T07:55:51;101427.78;;;20.09;56.22
43125;BME280;49182;50.788;7.318;2022-07-05T07:58:17;101422.38;;;20.17;55.82
43125;BME280;49182;50.788;7.318;2022-07-05T08:00:44;101431.19;;;20.26;56.39
43125;BME280;49182;50.788;7.318;2022-07-05T08:03:11;101348.25;;;19.71;56.08
43125;BME280;49182;50.788;7.318;2022-07-05T08:05:38;101430.16;;;20.35;56.42
43125;BME280;49182;50.788;7.318;2022-07-05T08:08:05;101434.75;;;20.49;56.16
43125;BME280;49182;50.788;7.318;2022-07-05T08:10:32;101424.53;;;20.68;56.20
43125;BME280;49182;50.788;7.318;2022-07-05T08:13:00;101429.50;;;20.79;55.38
43125;BME280;49182;50.788;7.318;2022-07-05T08:15:26;101430.19;;;20.95;55.00
43125;BME280;49182;50.788;7.318;2022-07-05T08:17:53;101433.25;;;21.07;54.03
43125;BME280;49182;50.788;7.318;2022-07-05T08:20:19;101419.09;;;21.13;53.24
43125;BME280;49182;50.788;7.318;2022-07-05T08:22:46;101396.94;;;21.11;53.50
43125;BME280;49182;50.788;7.318;2022-07-05T08:25:13;101403.03;;;21.28;53.06
43125;BME280;49182;50.788;7.318;2022-07-05T08:27:39;101421.72;;;21.36;52.83
43125;BME280;49182;50.788;7.318;2022-07-05T08:30:09;101414.34;;;21.53;52.96
43125;BME280;49182;50.788;7.318;2022-07-05T08:32:36;101417.75;;;21.61;51.64
43125;BME280;49182;50.788;7.318;2022-07-05T08:35:04;101419.06;;;21.65;49.09
43125;BME280;49182;50.788;7.318;2022-07-05T08:37:31;101403.50;;;21.46;49.81
43125;BME280;49182;50.788;7.318;2022-07-05T08:39:57;101422.69;;;21.58;50.32
43125;BME280;49182;50.788;7.318;2022-07-05T08:42:24;101414.69;;;21.64;49.85
43125;BME280;49182;50.788;7.318;2022-07-05T08:44:50;101398.84;;;21.69;49.15
43125;BME280;49182;50.788;7.318;2022-07-05T08:47:19;101410.97;;;21.80;49.42
43125;BME280;49182;50.788;7.318;2022-07-05T08:49:47;101402.19;;;21.57;49.14
43125;BME280;49182;50.788;7.318;2022-07-05T08:52:15;101409.69;;;21.76;50.18
43125;BME280;49182;50.788;7.318;2022-07-05T08:54:44;101409.28;;;21.79;49.55
43125;BME280;49182;50.788;7.318;2022-07-05T08:57:13;101420.31;;;21.99;48.67
43125;BME280;49182;50.788;7.318;2022-07-05T08:59:41;101412.22;;;22.13;48.22
43125;BME280;49182;50.788;7.318;2022-07-05T09:02:10;101411.59;;;22.33;47.27
43125;BME280;49182;50.788;7.318;2022-07-05T09:04:44;101392.56;;;22.34;48.29
43125;BME280;49182;50.788;7.318;2022-07-05T09:07:14;101401.47;;;22.56;49.02
43125;BME280;49182;50.788;7.318;2022-07-05T09:09:42;101410.00;;;22.81;48.33
43125;BME280;49182;50.788;7.318;2022-07-05T09:12:09;101414.47;;;22.95;46.66
43125;BME280;49182;50.788;7.318;2022-07-05T09:14:48;101412.16;;;23.20;44.64
43125;BME280;49182;50.788;7.318;2022-07-05T09:17:15;101407.25;;;23.30;46.10
43125;BME280;49182;50.788;7.318;2022-07-05T09:19:43;101416.50;;;23.21;44.03
43125;BME280;49182;50.788;7.318;2022-07-05T09:22:16;101411.66;;;23.37;44.09
43125;BME280;49182;50.788;7.318;2022-07-05T09:24:44;101392.88;;;23.23;44.04
43125;BME280;49182;50.788;7.318;2022-07-05T09:27:11;101419.88;;;23.29;43.63
43125;BME280;49182;50.788;7.318;2022-07-05T09:29:38;101418.06;;;23.02;42.29
43125;BME280;49182;50.788;7.318;2022-07-05T09:32:22;101410.34;;;22.99;42.94
43125;BME280;49182;50.788;7.318;2022-07-05T09:34:50;101409.00;;;23.16;42.78
43125;BME280;49182;50.788;7.318;2022-07-05T09:37:17;101413.00;;;23.27;42.50
43125;BME280;49182;50.788;7.318;2022-07-05T09:39:44;101405.28;;;23.45;42.47
43125;BME280;49182;50.788;7.318;2022-07-05T09:42:15;101407.19;;;23.51;40.65
43125;BME280;49182;50.788;7.318;2022-07-05T09:44:42;101395.47;;;23.72;41.34
43125;BME280;49182;50.788;7.318;2022-07-05T09:47:12;101403.22;;;23.95;42.09
43125;BME280;49182;50.788;7.318;2022-07-05T09:49:42;101383.31;;;24.02;40.34
43125;BME280;49182;50.788;7.318;2022-07-05T09:52:31;101403.16;;;24.36;40.41
43125;BME280;49182;50.788;7.318;2022-07-05T09:55:03;101397.78;;;24.62;39.29
43125;BME280;49182;50.788;7.318;2022-07-05T09:57:31;101387.41;;;24.79;39.47
43125;BME280;49182;50.788;7.318;2022-07-05T09:59:58;101401.34;;;24.89;38.79
43125;BME280;49182;50.788;7.318;2022-07-05T10:02:34;101400.69;;;24.47;38.49
43125;BME280;49182;50.788;7.318;2022-07-05T10:05:09;101399.31;;;24.04;38.85
43125;BME280;49182;50.788;7.318;2022-07-05T10:07:38;101417.00;;;24.13;39.14
43125;BME280;49182;50.788;7.318;2022-07-05T10:10:07;101413.47;;;24.12;39.63
43125;BME280;49182;50.788;7.318;2022-07-05T10:12:35;101413.88;;;24.16;39.38
43125;BME280;49182;50.788;7.318;2022-07-05T10:15:03;101416.38;;;24.17;38.58
43125;BME280;49182;50.788;7.318;2022-07-05T10:17:36;101412.91;;;24.30;38.56
43125;BME280;49182;50.788;7.318;2022-07-05T10:20:05;101403.59;;;24.52;39.83
43125;BME280;49182;50.788;7.318;2022-07-05T10:22:37;101401.31;;;24.76;37.68
43125;BME280;49182;50.788;7.318;2022-07-05T10:25:06;101407.16;;;24.99;37.87
43125;BME280;49182;50.788;7.318;2022-07-05T10:27:33;101396.53;;;25.17;36.67
43125;BME280;49182;50.788;7.318;2022-07-05T10:30:01;101409.03;;;24.98;36.71
43125;BME280;49182;50.788;7.318;2022-07-05T10:32:28;101400.69;;;24.87;37.29
43125;BME280;49182;50.788;7.318;2022-07-05T10:34:57;101401.53;;;24.81;36.11
43125;BME280;49182;50.788;7.318;2022-07-05T10:37:26;101418.78;;;24.67;36.36
43125;BME280;49182;50.788;7.318;2022-07-05T10:39:55;101415.22;;;24.59;37.05
43125;BME280;49182;50.788;7.318;2022-07-05T10:42:23;101415.44;;;24.58;36.90
43125;BME280;49182;50.788;7.318;2022-07-05T10:44:51;101412.31;;;24.41;36.96
43125;BME280;49182;50.788;7.318;2022-07-05T10:47:18;101417.94;;;24.66;36.66
43125;BME280;49182;50.788;7.318;2022-07-05T10:49:59;101391.31;;;24.70;35.90
43125;BME280;49182;50.788;7.318;2022-07-05T10:52:26;101394.66;;;24.78;35.34
43125;BME280;49182;50.788;7.318;2022-07-05T10:55:18;101397.56;;;25.16;34.67
43125;BME280;49182;50.788;7.318;2022-07-05T10:58:18;101398.16;;;25.18;35.14
43125;BME280;49182;50.788;7.318;2022-07-05T11:00:47;101390.03;;;25.25;34.53
43125;BME280;49182;50.788;7.318;2022-07-05T11:03:32;101394.88;;;24.77;34.17
43125;BME280;49182;50.788;7.318;2022-07-05T11:06:00;101399.66;;;24.94;35.34
43125;BME280;49182;50.788;7.318;2022-07-05T11:08:26;101406.09;;;24.87;34.51
43125;BME280;49182;50.788;7.318;2022-07-05T11:11:09;101399.66;;;25.01;35.38
43125;BME280;49182;50.788;7.318;2022-07-05T11:13:36;101404.41;;;25.25;34.05
43125;BME280;49182;50.788;7.318;2022-07-05T11:16:21;101410.06;;;24.97;33.44
43125;BME280;49182;50.788;7.318;2022-07-05T11:18:49;101400.47;;;24.75;34.23
43125;BME280;49182;50.788;7.318;2022-07-05T11:21:17;101399.06;;;24.99;34.56
43125;BME280;49182;50.788;7.318;2022-07-05T11:23:44;101385.50;;;25.12;34.26
43125;BME280;49182;50.788;7.318;2022-07-05T11:26:12;101383.41;;;25.21;33.83
43125;BME280;49182;50.788;7.318;2022-07-05T11:28:43;101387.31;;;25.38;32.72
43125;BME280;49182;50.788;7.318;2022-07-05T11:31:10;101387.13;;;25.33;32.40
43125;BME280;49182;50.788;7.318;2022-07-05T11:33:41;101382.59;;;25.14;33.74
43125;BME280;49182;50.788;7.318;2022-07-05T11:36:22;101387.59;;;24.84;32.96
43125;BME280;49182;50.788;7.318;2022-07-05T11:41:48;101379.50;;;24.97;33.21
43125;BME280;49182;50.788;7.318;2022-07-05T11:44:15;101377.59;;;25.17;31.89
43125;BME280;49182;50.788;7.318;2022-07-05T11:46:44;101375.44;;;25.46;32.44
43125;BME280;49182;50.788;7.318;2022-07-05T11:49:22;101370.34;;;25.75;31.33
43125;BME280;49182;50.788;7.318;2022-07-05T11:52:01;101368.13;;;26.04;31.43
43125;BME280;49182;50.788;7.318;2022-07-05T11:54:30;101376.22;;;26.10;30.67
43125;BME280;49182;50.788;7.318;2022-07-05T11:56:59;101380.66;;;25.98;31.96
43125;BME280;49182;50.788;7.318;2022-07-05T11:59:26;101368.81;;;25.86;31.70
43125;BME280;49182;50.788;7.318;2022-07-05T12:01:54;101369.00;;;25.98;31.00
43125;BME280;49182;50.788;7.318;2022-07-05T12:04:22;101370.38;;;26.07;31.99
43125;BME280;49182;50.788;7.318;2022-07-05T12:06:49;101357.84;;;26.12;31.57
43125;BME280;49182;50.788;7.318;2022-07-05T12:09:22;101353.34;;;26.38;30.89
43125;BME280;49182;50.788;7.318;2022-07-05T12:11:49;101352.41;;;26.50;30.01
43125;BME280;49182;50.788;7.318;2022-07-05T12:14:21;101345.22;;;26.63;30.41
43125;BME280;49182;50.788;7.318;2022-07-05T12:16:48;101327.41;;;26.48;29.83
43125;BME280;49182;50.788;7.318;2022-07-05T12:19:25;101354.69;;;26.78;30.65
43125;BME280;49182;50.788;7.318;2022-07-05T12:21:53;101352.91;;;26.90;30.72
43125;BME280;49182;50.788;7.318;2022-07-05T12:24:19;101361.44;;;26.87;29.83
43125;BME280;49182;50.788;7.318;2022-07-05T12:26:46;101352.19;;;27.02;29.32
43125;BME280;49182;50.788;7.318;2022-07-05T12:29:14;101349.41;;;26.83;29.94
43125;BME280;49182;50.788;7.318;2022-07-05T12:32:03;101343.22;;;27.01;29.54
43125;BME280;49182;50.788;7.318;2022-07-05T12:34:31;101339.69;;;27.19;29.46
43125;BME280;49182;50.788;7.318;2022-07-05T12:36:57;101357.38;;;27.40;28.77
43125;BME280;49182;50.788;7.318;2022-07-05T12:39:24;101334.53;;;27.47;28.56
43125;BME280;49182;50.788;7.318;2022-07-05T12:41:51;101337.63;;;27.69;28.35
43125;BME280;49182;50.788;7.318;2022-07-05T12:44:18;101325.66;;;27.88;28.92
43125;BME280;49182;50.788;7.318;2022-07-05T12:46:45;101331.78;;;27.84;28.20
43125;BME280;49182;50.788;7.318;2022-07-05T12:49:13;101345.22;;;27.78;26.90
43125;BME280;49182;50.788;7.318;2022-07-05T12:51:42;101318.41;;;27.70;27.66
43125;BME280;49182;50.788;7.318;2022-07-05T12:54:19;101335.22;;;27.91;27.32
43125;BME280;49182;50.788;7.318;2022-07-05T12:56:47;101329.47;;;27.99;28.09
43125;BME280;49182;50.788;7.318;2022-07-05T12:59:34;101335.50;;;28.01;27.57
43125;BME280;49182;50.788;7.318;2022-07-05T13:02:01;101345.59;;;27.52;28.62